MST,Max TemperatureF,Mean TemperatureF,Min TemperatureF,Max Dew PointF,MeanDew PointF,Min DewpointF,Max Humidity, Mean Humidity, Min Humidity, Max Sea Level PressureIn, Mean Sea Level PressureIn, Min Sea Level PressureIn, Max VisibilityMiles, Mean VisibilityMiles, Min VisibilityMiles, Max Wind SpeedMPH, Mean Wind SpeedMPH, Max Gust SpeedMPH,PrecipitationIn, CloudCover, Events, WindDirDegrees
2011-11-1,48,39,30,29,24,17,82,60,38,30.47,30.22,30.07,10,10,10,21,8,26,0.00,0,,302
2011-11-2,49,33,17,25,17,14,92,59,26,30.55,30.40,30.20,10,10,10,17,9,23,0.00,0,,195
2011-11-3,51,38,25,18,16,13,63,45,26,30.16,29.94,29.72,10,10,10,17,8,20,0.00,0,,168
2011-11-4,55,37,18,24,20,18,84,54,24,29.76,29.66,29.55,10,10,10,13,6,15,0.00,0,,113
2011-11-5,36,32,27,29,26,19,100,78,56,29.67,29.56,29.46,10,4,0,28,14,37,0.18,7,Fog-Snow,308
2011-11-6,36,27,17,27,21,13,88,68,47,30.09,29.81,29.61,10,10,5,28,13,36,T,3,Snow,282
2011-11-7,38,26,14,23,17,11,88,68,48,30.22,30.15,30.05,10,10,10,10,4,10,0.00,0,,163
2011-11-8,46,28,10,26,20,7,88,67,45,30.38,30.23,30.06,10,10,10,16,7,18,0.00,3,,246
2011-11-9,45,32,19,29,23,17,92,69,45,30.53,30.44,30.33,10,10,10,10,3,12,0.00,1,,266
2011-11-10,53,39,24,1,1,1,100,94,88,30.34,29.95,29.76,10,10,10,18,9,23,0.00,0,,201
2011-11-11,61,45,28,23,20,18,52,36,19,29.77,29.58,29.35,10,10,10,21,8,26,0.00,0,,242
2011-11-12,54,44,33,33,28,20,82,60,37,29.39,29.36,29.30,10,10,10,24,11,30,0.00,4,,260
2011-11-13,49,40,31,32,26,20,82,58,34,29.48,29.37,29.30,10,10,10,32,14,41,T,6,Rain,266
2011-11-14,40,34,27,31,28,25,92,76,59,29.65,29.51,29.42,10,10,7,31,13,40,T,5,Snow,252
2011-11-15,34,27,19,27,14,4,81,55,28,30.17,29.93,29.62,10,10,10,32,16,38,0.00,2,,282
2011-11-16,36,25,14,16,8,2,88,56,23,30.33,30.25,30.16,10,10,10,23,10,29,0.00,1,,261
2011-11-17,47,31,15,24,13,7,67,49,31,30.07,29.76,29.59,10,10,10,31,11,39,T,4,,193
2011-11-18,37,23,8,18,10,1,74,56,37,30.04,29.84,29.63,10,10,10,20,11,23,0.00,6,,351
2011-11-19,9,2,-5,1,-1,-8,91,80,69,30.24,30.10,29.89,10,6,1,20,8,23,0.03,6,Snow,62
2011-11-20,26,11,-5,17,4,-8,91,76,60,30.21,30.12,29.92,10,10,10,17,8,21,0.00,0,,160
2011-11-21,35,18,0,23,14,1,92,77,61,30.12,30.05,29.96,10,10,10,12,6,14,0.00,0,,154
2011-11-22,45,32,18,29,22,16,91,72,53,30.05,29.96,29.81,10,10,10,15,9,16,0.00,0,,155
2011-11-23,58,44,30,30,28,25,78,56,33,29.97,29.82,29.69,10,10,10,17,11,20,0.00,0,,159
2011-11-24,47,38,29,31,28,26,85,69,53,29.75,29.72,29.67,10,10,10,14,6,16,0.00,0,,155
2011-11-25,41,33,24,34,27,19,100,76,51,30.30,29.86,29.68,10,10,10,32,10,40,T,2,Rain,264
2011-11-26,40,32,23,25,16,9,81,54,27,30.59,30.49,30.35,10,10,10,21,10,29,0.00,0,,252
2011-11-27,51,37,22,26,21,15,77,55,32,30.35,30.12,29.93,10,10,10,13,7,15,0.00,0,,157
2011-11-28,49,39,28,30,25,22,85,61,37,30.37,30.25,29.92,10,10,10,18,7,26,0.00,3,,301
2011-11-29,42,33,24,29,27,22,92,75,57,30.30,30.16,29.98,10,10,10,12,6,16,0.00,1,,164
2011-11-30,42,34,25,36,29,21,96,83,70,30.56,30.16,29.88,10,7,1,26,9,35,0.01,8,Rain-Snow,2